Time;durP1;ratioP1;P1;durP2;ratioP2;P2;SDS_P1;SDS_P2;PMS_P1;PMS_P2;Temp;Humidity;BMP_temperature;BMP_pressure;BME280_temperature;BME280_humidity;BME280_pressure;Samples;Min_cycle;Max_cycle;Signal;HPM_P1;HPM_P2
2022/08/19 00:02:11;;;;;;;9.55;3.92;;;;;;;23.50;37.33;99990.84;4955965;29;20071;-75
2022/08/19 00:04:38;;;;;;;6.50;3.70;;;;;;;23.51;37.50;99991.69;4938451;29;20523;-76
2022/08/19 00:07:06;;;;;;;5.57;3.10;;;;;;;23.48;37.76;99992.50;4940072;29;20515;-75
2022/08/19 00:09:33;;;;;;;15.52;4.47;;;;;;;23.39;38.52;99990.09;4936610;29;20561;-75
2022/08/19 00:12:01;;;;;;;8.02;3.45;;;;;;;23.38;38.46;99993.34;4936222;29;20059;-75
2022/08/19 00:14:31;;;;;;;5.22;2.97;;;;;;;23.32;38.82;99990.06;4954039;29;20059;-75
2022/08/19 00:16:59;;;;;;;10.57;4.45;;;;;;;23.30;38.95;99990.47;4955419;28;20538;-76
2022/08/19 00:19:26;;;;;;;18.30;6.45;;;;;;;23.21;39.31;99992.88;4937903;29;20070;-75
2022/08/19 00:21:54;;;;;;;5.03;3.08;;;;;;;23.17;39.52;99996.94;4955557;29;20114;-75
2022/08/19 00:24:21;;;;;;;5.35;3.65;;;;;;;23.14;39.54;100001.41;4955362;29;20051;-76
2022/08/19 00:26:48;;;;;;;6.82;3.83;;;;;;;23.14;39.96;100001.41;4955369;29;20070;-76
2022/08/19 00:29:17;;;;;;;6.07;3.95;;;;;;;23.08;40.13;100008.72;4955359;29;20078;-75
2022/08/19 00:31:45;;;;;;;6.00;3.60;;;;;;;22.94;40.32;99990.84;4937939;29;20422;-75
2022/08/19 00:34:13;;;;;;;8.15;3.78;;;;;;;22.94;40.29;99999.38;4938436;29;20055;-69
2022/08/19 00:36:40;;;;;;;8.27;3.88;;;;;;;22.96;40.29;100003.44;4955258;29;20432;-67
2022/08/19 00:39:08;;;;;;;11.23;3.80;;;;;;;22.96;40.09;100000.59;4955481;29;20404;-69
2022/08/19 00:41:35;;;;;;;9.40;4.10;;;;;;;22.95;40.20;99993.28;4937665;29;20169;-69
2022/08/19 00:44:05;;;;;;;8.73;3.58;;;;;;;22.94;40.29;100000.19;4954813;29;20056;-70
2022/08/19 00:46:33;;;;;;;;;;;;;;;22.79;40.46;99992.88;4955156;29;20063;-70
2022/08/19 00:49:06;;;;;;;7.80;3.92;;;;;;;22.83;40.36;100001.41;4955210;29;19930;-70
2022/08/19 00:51:34;;;;;;;10.48;3.92;;;;;;;22.86;40.44;100000.59;4973701;28;20066;-69
2022/08/19 00:54:02;;;;;;;13.73;4.55;;;;;;;22.87;40.36;100007.88;4974147;28;20058;-69
2022/08/19 00:56:30;;;;;;;9.07;3.85;;;;;;;22.91;40.31;100015.19;4973867;28;20063;-70
2022/08/19 00:58:58;;;;;;;13.85;4.30;;;;;;;22.95;40.37;100027.34;4974090;28;20154;-70
2022/08/19 01:01:25;;;;;;;7.97;4.05;;;;;;;22.94;40.29;100020.06;4974207;28;20059;-70
2022/08/19 01:03:55;;;;;;;9.02;4.13;;;;;;;22.93;40.34;100023.28;4974098;28;20066;-68
2022/08/19 01:06:25;;;;;;;7.45;3.80;;;;;;;22.94;40.17;100031.41;4943629;29;20114;-67
2022/08/19 01:08:54;;;;;;;9.40;3.85;;;;;;;22.93;40.46;100024.13;4954732;29;20059;-68
2022/08/19 01:11:21;;;;;;;6.28;3.72;;;;;;;22.90;40.54;100036.28;4954986;29;20059;-68
2022/08/19 01:13:50;;;;;;;9.07;3.63;;;;;;;22.83;40.81;100044.75;4954313;29;20066;-72
2022/08/19 01:16:20;;;;;;;8.52;3.50;;;;;;;22.74;40.98;100049.22;4961516;28;20059;-71
2022/08/19 01:18:48;;;;;;;7.50;4.35;;;;;;;22.64;41.07;100039.47;4973884;28;20066;-71
2022/08/19 01:21:44;;;;;;;11.45;3.58;;;;;;;22.57;41.17;100052.81;4956328;28;20050;-72
2022/08/19 01:24:11;;;;;;;12.90;4.57;;;;;;;22.48;41.30;100041.00;4966879;28;20074;-71
2022/08/19 01:26:41;;;;;;;18.30;4.00;;;;;;;22.46;41.53;100038.56;4974101;28;20507;-71
2022/08/19 01:29:09;;;;;;;11.52;3.78;;;;;;;22.44;41.45;100040.97;4956307;28;20058;-68
2022/08/19 01:31:39;;;;;;;8.38;4.20;;;;;;;22.47;41.56;100045.06;4956985;28;20073;-68
2022/08/19 01:34:07;;;;;;;7.35;3.70;;;;;;;22.46;41.69;100049.91;4973507;28;20157;-68
2022/08/19 01:36:48;;;;;;;13.32;4.38;;;;;;;22.41;41.53;100041.78;4973936;28;20410;-69
2022/08/19 01:39:20;;;;;;;9.50;4.10;;;;;;;22.35;41.95;100043.38;4973137;28;20057;-68
2022/08/19 01:41:48;;;;;;;20.33;4.63;;;;;;;22.34;42.08;100046.59;4973620;28;20069;-67
2022/08/19 01:44:16;;;;;;;17.90;3.88;;;;;;;22.33;42.12;100028.00;4956794;28;20082;-69
2022/08/19 01:46:47;;;;;;;7.35;3.72;;;;;;;22.33;42.00;100028.81;4977883;28;20069;-68
2022/08/19 01:49:17;;;;;;;17.20;3.88;;;;;;;22.33;42.08;100028.81;4977393;28;20054;-69
2022/08/19 01:51:44;;;;;;;12.60;3.67;;;;;;;22.33;41.96;100028.00;4977651;28;20145;-71
2022/08/19 01:54:14;;;;;;;9.23;3.35;;;;;;;22.31;41.96;100019.88;4977491;28;20533;-72
2022/08/19 01:56:59;;;;;;;11.27;3.38;;;;;;;22.29;42.11;100030.81;4977219;28;20190;-71
2022/08/19 01:59:27;;;;;;;7.57;3.50;;;;;;;22.25;42.15;100032.81;4977681;28;20486;-72
2022/08/19 02:01:54;;;;;;;6.78;3.72;;;;;;;22.27;42.14;100023.91;4977441;28;20061;-71
2022/08/19 02:04:23;;;;;;;9.98;3.33;;;;;;;22.29;42.06;100016.63;4977150;28;20073;-75
2022/08/19 02:06:50;;;;;;;9.48;3.60;;;;;;;22.32;42.07;100010.16;4977303;28;20100;-75
2022/08/19 02:09:17;;;;;;;7.90;3.80;;;;;;;22.30;41.92;100012.59;4976932;28;20494;-75
2022/08/19 02:11:44;;;;;;;4.53;3.10;;;;;;;22.26;41.90;100016.63;4977158;28;20082;-75
2022/08/19 02:14:11;;;;;;;13.52;3.60;;;;;;;22.24;41.96;100019.88;4976638;28;20097;-75
2022/08/19 02:16:38;;;;;;;8.23;3.60;;;;;;;22.26;41.83;100023.09;4967213;28;20142;-74
2022/08/19 02:19:05;;;;;;;11.77;3.30;;;;;;;22.27;41.74;100027.56;4932379;29;20430;-74
2022/08/19 02:21:33;;;;;;;15.85;4.82;;;;;;;22.26;41.72;100057.09;4958068;29;20574;-74
2022/08/19 02:24:00;;;;;;;17.33;4.38;;;;;;;22.22;41.72;100063.97;4957243;29;20070;-71
2022/08/19 02:26:28;;;;;;;24.90;3.97;;;;;;;22.10;42.10;100061.47;4957552;29;20082;-71
2022/08/19 02:28:56;;;;;;;8.45;3.47;;;;;;;22.09;42.13;100066.38;4957587;29;20058;-71
2022/08/19 02:31:25;;;;;;;11.32;3.65;;;;;;;22.09;42.21;100069.19;4957309;29;20063;-72
2022/08/19 02:33:52;;;;;;;8.52;4.20;;;;;;;22.00;42.55;100065.91;4957814;29;20055;-72
2022/08/19 02:36:24;;;;;;;9.88;3.65;;;;;;;21.95;42.50;100060.59;4974584;28;20050;-71
2022/08/19 02:38:51;;;;;;;10.63;3.80;;;;;;;21.85;42.74;100058.53;4976347;28;20099;-72
2022/08/19 02:41:31;;;;;;;;;;;;;;;21.69;42.98;100055.97;4977163;28;20089;-72
2022/08/19 02:44:00;;;;;;;13.90;5.07;;;;;;;21.77;43.00;100065.34;4974939;28;20338;-70
2022/08/19 02:46:49;;;;;;;11.15;4.20;;;;;;;21.80;43.03;100061.72;4959791;28;20131;-69
2022/08/19 02:49:19;;;;;;;11.40;3.83;;;;;;;21.80;43.06;100056.06;4976491;28;20059;-70
2022/08/19 02:51:46;;;;;;;9.75;3.97;;;;;;;21.77;43.16;100062.53;4976676;28;20061;-69
2022/08/19 02:54:14;;;;;;;7.80;3.50;;;;;;;21.73;43.59;100065.28;4976232;28;20118;-69
2022/08/19 02:56:43;;;;;;;10.30;3.92;;;;;;;21.71;43.39;100059.19;4976137;28;20055;-68
2022/08/19 02:59:11;;;;;;;15.73;4.03;;;;;;;21.70;43.37;100063.25;4976566;28;20117;-69
2022/08/19 03:01:40;;;;;;;8.82;3.65;;;;;;;21.74;43.33;100057.66;4976250;28;20054;-70
2022/08/19 03:04:11;;;;;;;9.93;4.05;;;;;;;21.77;43.01;100056.84;4976211;28;20162;-70
2022/08/19 03:06:41;;;;;;;14.07;3.78;;;;;;;21.81;42.98;100069.00;4975665;28;20510;-69
2022/08/19 03:09:08;;;;;;;17.00;4.05;;;;;;;21.77;43.25;100059.69;4958499;28;20063;-70
2022/08/19 03:11:36;;;;;;;7.32;3.65;;;;;;;21.71;43.29;100061.25;4976246;28;20058;-71
2022/08/19 03:14:09;;;;;;;9.35;3.85;;;;;;;21.70;43.47;100068.09;4975718;28;20109;-71
2022/08/19 03:16:47;;;;;;;8.65;3.55;;;;;;;21.76;43.33;100065.75;4949222;29;20063;-71
2022/08/19 03:19:17;;;;;;;8.43;3.65;;;;;;;21.79;43.14;100071.41;4956606;29;20503;-70
2022/08/19 03:21:45;;;;;;;12.52;4.32;;;;;;;21.78;43.48;100074.66;4956766;29;20136;-70
2022/08/19 03:24:13;;;;;;;10.50;4.18;;;;;;;21.79;43.47;100079.91;4956532;29;20175;-71
2022/08/19 03:26:44;;;;;;;9.43;4.55;;;;;;;21.81;43.49;100079.53;4956669;29;20133;-71
2022/08/19 03:29:11;;;;;;;19.65;4.35;;;;;;;21.73;43.45;100078.63;4956658;29;20063;-71
2022/08/19 03:31:40;;;;;;;14.50;4.95;;;;;;;21.68;43.56;100076.97;4956839;29;20059;-72
2022/08/19 03:34:27;;;;;;;8.50;3.67;;;;;;;21.73;43.58;100078.63;4956541;29;20497;-71
2022/08/19 03:36:57;;;;;;;15.65;3.92;;;;;;;21.70;43.58;100077.41;4965832;28;20058;-72
2022/08/19 03:39:24;;;;;;;;;;;;;;;21.56;43.79;100079.34;4976039;28;20062;-72
2022/08/19 03:41:55;;;;;;;15.48;5.22;;;;;;;21.55;44.23;100074.84;4958524;28;20440;-72
2022/08/19 03:44:44;;;;;;;15.68;4.15;;;;;;;21.55;43.99;100067.19;4975487;28;20058;-72
2022/08/19 03:47:15;;;;;;;9.13;4.13;;;;;;;21.64;44.03;100067.66;4973816;28;20594;-75
2022/08/19 03:49:43;;;;;;;9.55;4.15;;;;;;;21.73;43.84;100062.47;4975459;28;20483;-69
2022/08/19 03:52:10;;;;;;;16.35;4.43;;;;;;;21.88;43.71;100068.25;4973644;28;20073;-69
2022/08/19 03:54:38;;;;;;;13.48;3.88;;;;;;;21.89;43.63;100070.69;4975083;28;20058;-69
2022/08/19 03:57:05;;;;;;;12.23;5.00;;;;;;;21.91;43.78;100073.94;4967116;28;20069;-67
2022/08/19 03:59:36;;;;;;;14.02;5.50;;;;;;;21.90;43.73;100077.19;4975024;28;20055;-69
2022/08/19 04:02:08;;;;;;;17.17;4.88;;;;;;;21.94;43.67;100076.00;4975420;28;20078;-68
2022/08/19 04:04:42;;;;;;;12.05;4.32;;;;;;;22.05;43.63;100074.00;4974784;28;20423;-68
2022/08/19 04:07:12;;;;;;;11.20;4.28;;;;;;;22.10;43.57;100070.81;4974052;28;20062;-75
2022/08/19 04:09:39;;;;;;;15.52;4.50;;;;;;;22.14;43.40;100073.66;4942137;28;20054;-76
2022/08/19 04:12:07;;;;;;;11.63;3.80;;;;;;;22.11;43.50;100092.25;4975321;28;20063;-76
2022/08/19 04:14:35;;;;;;;12.13;4.15;;;;;;;22.01;43.89;100072.38;4957641;28;20411;-76
2022/08/19 04:17:04;;;;;;;16.77;4.38;;;;;;;21.98;43.95;100090.16;4961329;28;20078;-75
2022/08/19 04:19:34;;;;;;;12.95;3.80;;;;;;;22.02;43.83;100083.31;4955686;29;20087;-75
2022/08/19 04:22:01;;;;;;;;;;;;;;;22.00;43.87;100082.91;4956237;29;20063;-76
2022/08/19 04:24:28;;;;;;;8.77;3.90;;;;;;;22.16;43.64;100091.91;4938347;29;19926;-75
2022/08/19 04:26:55;;;;;;;11.55;4.13;;;;;;;22.24;43.54;100082.22;4955519;29;20410;-76
2022/08/19 04:29:24;;;;;;;12.10;4.13;;;;;;;22.31;43.27;100076.56;4955701;29;20111;-76
2022/08/19 04:31:54;;;;;;;11.75;4.53;;;;;;;22.23;43.73;100080.59;4955334;29;20115;-75
2022/08/19 04:34:24;;;;;;;7.75;4.55;;;;;;;22.26;43.64;100091.13;4955017;29;20422;-76
2022/08/19 04:36:53;;;;;;;11.95;4.25;;;;;;;22.29;43.60;100089.53;4955212;29;20078;-75
2022/08/19 04:42:38;;;;;;;11.18;3.95;;;;;;;22.37;43.59;100092.00;4963519;28;20154;-75
2022/08/19 04:44:58;;;;;;;17.20;4.55;;;;;;;22.72;42.81;100108.38;4956564;28;20055;-75
2022/08/19 04:47:25;;;;;;;14.18;5.43;;;;;;;22.67;42.89;100101.06;4974168;28;20058;-75
2022/08/19 04:50:13;;;;;;;12.23;4.28;;;;;;;22.64;42.96;100096.19;4974530;28;20085;-76
2022/08/19 04:52:43;;;;;;;12.82;4.03;;;;;;;22.81;42.73;100095.44;4974167;28;20524;-75
2022/08/19 04:55:13;;;;;;;12.18;4.72;;;;;;;22.78;42.56;100095.41;4974160;28;20110;-75
2022/08/19 04:57:39;;;;;;;12.15;4.60;;;;;;;22.90;42.50;100109.22;4974014;28;20541;-76
2022/08/19 05:00:08;;;;;;;14.68;5.22;;;;;;;22.99;41.93;100089.78;4973900;28;20090;-76
2022/08/19 05:02:38;;;;;;;16.13;4.43;;;;;;;23.01;42.27;100105.19;4973803;28;20475;-75
2022/08/19 05:05:09;;;;;;;17.48;5.00;;;;;;;22.96;42.41;100099.94;4974168;28;20294;-76
2022/08/19 05:07:36;;;;;;;12.18;3.80;;;;;;;23.06;42.03;100096.28;4973977;28;20054;-76
2022/08/19 05:10:05;;;;;;;19.35;4.88;;;;;;;23.22;41.99;100093.91;4974125;28;20070;-75
2022/08/19 05:12:32;;;;;;;16.65;5.53;;;;;;;23.34;41.83;100102.03;4973444;28;20074;-74
2022/08/19 05:15:00;;;;;;;11.25;4.90;;;;;;;23.48;41.47;100106.09;4973691;28;20066;-69
2022/08/19 05:17:29;;;;;;;15.15;5.07;;;;;;;23.26;41.62;100110.94;4956467;28;20070;-71
2022/08/19 05:22:50;;;;;;;12.45;4.70;;;;;;;23.31;41.81;100102.84;4954468;29;20090;-70
2022/08/19 05:25:20;;;;;;;22.13;4.90;;;;;;;23.45;41.37;100101.22;4937039;29;20055;-70
2022/08/19 05:27:47;;;;;;;;;;;;;;;23.42;41.44;100092.28;4954700;29;20055;-70
2022/08/19 05:30:15;;;;;;;18.58;4.20;;;;;;;23.46;41.43;100109.34;4954459;29;19992;-70
2022/08/19 05:32:42;;;;;;;17.65;6.25;;;;;;;23.54;41.34;100101.63;4954160;29;20070;-68
2022/08/19 05:35:10;;;;;;;11.30;5.43;;;;;;;23.58;41.27;100097.56;4962286;28;20462;-69
2022/08/19 05:37:40;;;;;;;10.38;4.40;;;;;;;23.69;41.23;100097.56;4973437;28;20188;-69
2022/08/19 05:40:10;;;;;;;8.50;4.47;;;;;;;23.86;40.92;100091.06;4973605;28;20063;-70
2022/08/19 05:42:38;;;;;;;13.85;4.82;;;;;;;23.98;40.87;100097.13;4973241;28;20062;-69
2022/08/19 05:45:07;;;;;;;13.15;4.78;;;;;;;24.10;40.47;100107.28;4959148;28;20063;-70
2022/08/19 05:47:35;;;;;;;12.75;4.97;;;;;;;23.92;40.56;100100.78;4954151;29;20059;-71
2022/08/19 05:50:08;;;;;;;17.73;5.15;;;;;;;23.74;41.19;100100.00;4954445;29;20063;-70
2022/08/19 05:52:38;;;;;;;11.07;4.47;;;;;;;23.80;40.98;100106.91;4954060;29;20051;-70
2022/08/19 05:55:10;;;;;;;14.90;4.40;;;;;;;23.96;40.57;100096.75;4956023;28;20189;-69
2022/08/19 05:57:37;;;;;;;18.48;4.78;;;;;;;24.15;40.42;100101.16;4971766;28;20514;-69
2022/08/19 06:00:09;;;;;;;17.08;5.93;;;;;;;24.42;39.89;100099.47;4973412;28;20568;-70
2022/08/19 06:02:36;;;;;;;17.88;4.82;;;;;;;24.63;39.60;100102.22;4973187;28;20058;-71
2022/08/19 06:05:07;;;;;;;10.52;4.32;;;;;;;24.75;39.37;100107.47;4973031;28;20062;-70
2022/08/19 06:07:33;;;;;;;9.90;4.45;;;;;;;24.90;39.10;100098.44;4973513;28;20525;-69
2022/08/19 06:10:08;;;;;;;20.35;4.82;;;;;;;25.31;38.45;100098.56;4955690;28;20058;-70
2022/08/19 06:12:37;;;;;;;14.80;4.53;;;;;;;25.50;37.68;100094.38;4972955;28;20497;-69
2022/08/19 06:15:08;;;;;;;11.40;4.85;;;;;;;25.54;37.62;100098.00;4965241;28;20502;-70
2022/08/19 06:17:36;;;;;;;9.63;4.32;;;;;;;25.75;37.54;100103.56;4972691;28;20059;-71
2022/08/19 06:20:05;;;;;;;18.17;4.38;;;;;;;25.86;37.35;100102.19;4972971;28;20114;-70
2022/08/19 06:22:40;;;;;;;14.73;5.30;;;;;;;25.63;37.59;100099.16;4973140;28;20487;-70
2022/08/19 06:25:09;;;;;;;12.25;4.15;;;;;;;25.42;37.80;100104.22;4973102;28;20149;-70
2022/08/19 06:27:37;;;;;;;10.07;4.25;;;;;;;25.36;38.23;100106.72;4973056;28;20459;-70
2022/08/19 06:30:24;;;;;;;10.43;3.92;;;;;;;25.49;37.78;100107.81;4974351;28;20090;-69
2022/08/19 06:32:51;;;;;;;13.32;4.53;;;;;;;25.43;37.95;100105.84;4976615;28;20413;-70
2022/08/19 06:35:18;;;;;;;7.68;4.50;;;;;;;25.55;37.73;100103.28;4976567;28;20077;-70
2022/08/19 06:37:46;;;;;;;10.50;3.78;;;;;;;25.53;38.10;100097.22;4976503;28;20059;-70
2022/08/19 06:40:13;;;;;;;9.80;4.35;;;;;;;25.47;38.35;100104.59;4976706;28;20153;-70
2022/08/19 06:42:40;;;;;;;15.32;5.38;;;;;;;25.37;38.03;100098.97;4976541;28;20055;-69
2022/08/19 06:45:21;;;;;;;11.43;4.03;;;;;;;25.21;38.62;100115.72;4976100;28;20059;-68
2022/08/19 06:47:55;;;;;;;11.07;4.05;;;;;;;25.01;39.08;100109.75;4976285;28;20110;-69
2022/08/19 06:50:23;;;;;;;11.30;4.55;;;;;;;24.87;39.46;100104.16;4976320;28;20062;-69
2022/08/19 06:52:51;;;;;;;10.68;3.97;;;;;;;24.80;39.57;100110.69;4975988;28;20541;-69
2022/08/19 06:55:18;;;;;;;8.82;4.80;;;;;;;24.85;39.25;100113.13;4976079;28;20157;-69
2022/08/19 06:57:46;;;;;;;20.80;4.32;;;;;;;24.81;39.31;100112.31;4975792;28;20158;-70
2022/08/19 07:00:13;;;;;;;17.40;6.22;;;;;;;24.83;39.70;100100.50;4976139;28;20065;-71
2022/08/19 07:02:42;;;;;;;16.52;4.40;;;;;;;24.94;39.19;100118.34;4976031;28;20063;-70
2022/08/19 07:05:21;;;;;;;13.13;4.25;;;;;;;24.94;39.10;100112.66;4976029;28;20081;-70
2022/08/19 07:07:49;;;;;;;9.98;3.95;;;;;;;24.98;39.10;100119.13;4975662;28;20429;-70
2022/08/19 07:10:20;;;;;;;17.30;4.38;;;;;;;25.19;38.58;100110.44;4975912;28;20582;-70
2022/08/19 07:12:48;;;;;;;7.57;3.78;;;;;;;25.35;38.19;100110.78;4975417;28;20066;-69
2022/08/19 07:15:16;;;;;;;14.57;4.10;;;;;;;25.56;37.61;100104.94;4976114;28;20520;-69
2022/08/19 07:17:44;;;;;;;11.23;4.00;;;;;;;25.87;37.07;100103.81;4956484;28;20143;-70
2022/08/19 07:20:18;;;;;;;23.77;4.90;;;;;;;26.38;36.24;100114.31;4956704;29;20063;-70
2022/08/19 07:22:45;;;;;;;15.70;4.20;;;;;;;26.74;35.31;100107.75;4956293;29;20090;-70
2022/08/19 07:25:13;;;;;;;18.38;4.28;;;;;;;27.41;34.48;100100.31;4956367;29;20090;-70
2022/08/19 07:27:40;;;;;;;10.52;4.20;;;;;;;28.89;32.11;100106.91;4956580;29;20106;-69
2022/08/19 07:30:13;;;;;;;17.17;3.85;;;;;;;30.39;29.18;100113.00;4956055;29;20549;-69
2022/08/19 07:32:42;;;;;;;15.15;4.88;;;;;;;31.17;28.07;100107.38;4956297;29;20051;-70
2022/08/19 07:35:09;;;;;;;7.82;4.15;;;;;;;32.66;25.83;100115.47;4955921;29;20051;-69
2022/08/19 07:37:37;;;;;;;25.13;4.70;;;;;;;33.60;23.73;100134.03;4955936;29;20051;-68
2022/08/19 07:40:07;;;;;;;13.35;3.80;;;;;;;33.02;24.72;100109.97;4952557;29;20502;-69
2022/08/19 07:42:37;;;;;;;8.18;3.80;;;;;;;33.28;24.42;100123.72;4937937;29;20479;-69
2022/08/19 07:45:05;;;;;;;10.18;4.28;;;;;;;33.48;24.15;100127.06;4970680;28;20063;-70
2022/08/19 07:47:32;;;;;;;7.95;3.72;;;;;;;33.96;23.40;100121.78;4974866;28;20066;-70
2022/08/19 07:50:19;;;;;;;21.95;3.90;;;;;;;33.93;23.04;100117.78;4975299;28;20066;-70
2022/08/19 07:52:49;;;;;;;8.13;3.42;;;;;;;33.44;23.40;100114.88;4974982;28;20054;-69
2022/08/19 07:55:20;;;;;;;12.63;3.28;;;;;;;33.47;23.68;100118.09;4975069;28;20077;-69
2022/08/19 07:58:07;;;;;;;6.60;3.92;;;;;;;34.15;22.79;100121.34;4975191;28;20055;-68
2022/08/19 08:00:38;;;;;;;12.23;2.92;;;;;;;34.79;21.83;100116.41;4975487;28;20058;-68
2022/08/19 08:03:05;;;;;;;12.35;4.95;;;;;;;35.64;20.78;100108.16;4974928;28;20506;-69
2022/08/19 08:11:16;;;;;;;19.05;3.63;;;;;;;37.78;18.19;100133.38;4955405;29;20114;-70
2022/08/19 08:13:48;;;;;;;13.98;3.28;;;;;;;36.35;19.80;100134.34;4938268;29;20083;-70
2022/08/19 08:16:34;;;;;;;16.80;3.50;;;;;;;35.24;21.20;100119.22;4955043;29;20541;-69
2022/08/19 08:19:16;;;;;;;13.13;3.28;;;;;;;35.82;19.92;100134.16;4955421;29;20499;-70
2022/08/19 08:21:55;;;;;;;6.45;3.25;;;;;;;36.92;19.05;100126.28;4955604;29;20430;-69
2022/08/19 08:24:23;;;;;;;8.18;2.97;;;;;;;37.33;18.60;100123.13;4955357;29;20062;-70
2022/08/19 08:26:54;;;;;;;12.95;3.17;;;;;;;36.93;18.84;100140.28;4955177;29;20587;-69
2022/08/19 08:29:23;;;;;;;28.58;4.38;;;;;;;36.57;19.50;100147.19;4955195;29;20162;-69
2022/08/19 08:31:51;;;;;;;10.13;3.42;;;;;;;36.14;19.90;100123.84;4955241;29;20404;-69
2022/08/19 08:34:26;;;;;;;14.98;3.05;;;;;;;34.67;21.76;100120.28;4954983;28;20150;-76
2022/08/19 08:36:53;;;;;;;14.23;3.85;;;;;;;34.99;21.47;100134.09;4955181;29;20082;-75
2022/08/19 08:39:21;;;;;;;11.93;3.25;;;;;;;35.10;21.21;100143.03;4954696;28;20070;-76
2022/08/19 08:42:01;;;;;;;9.02;2.92;;;;;;;33.73;22.59;100148.31;4954959;29;20062;-75
2022/08/19 08:44:35;;;;;;;34.87;4.73;;;;;;;32.20;24.35;100150.88;4938968;29;20051;-77
2022/08/19 08:47:10;;;;;;;12.50;3.50;;;;;;;30.89;26.41;100133.31;4955204;29;20290;-76
2022/08/19 08:49:43;;;;;;;14.30;3.85;;;;;;;30.14;27.49;100125.19;4953426;29;20054;-75
2022/08/19 08:52:35;;;;;;;8.18;3.33;;;;;;;29.73;28.28;100130.75;4954954;29;20122;-75
2022/08/19 08:55:11;;;;;;;7.45;3.05;;;;;;;29.34;28.29;100139.47;4954764;29;20086;-77
2022/08/19 08:57:38;;;;;;;9.45;3.50;;;;;;;29.27;28.88;100139.63;4955199;29;20047;-76
2022/08/19 09:00:14;;;;;;;8.55;3.30;;;;;;;29.81;28.11;100141.59;4955028;29;20511;-75
2022/08/19 09:02:43;;;;;;;9.40;3.03;;;;;;;30.24;26.54;100140.50;4954954;29;20087;-75
2022/08/19 09:05:12;;;;;;;10.38;2.83;;;;;;;30.15;26.80;100127.59;4937338;29;20059;-76
2022/08/19 09:08:21;;;;;;;6.72;2.30;;;;;;;33.09;22.92;100144.28;4939538;29;20518;-75
2022/08/19 09:10:53;;;;;;;12.23;2.72;;;;;;;35.20;20.61;100135.97;4935055;29;20153;-75
2022/08/19 09:13:44;;;;;;;10.68;2.42;;;;;;;35.21;19.89;100120.19;4936767;29;20471;-75
2022/08/19 09:16:20;;;;;;;10.80;2.70;;;;;;;35.02;20.03;100131.00;4937554;29;20059;-75
2022/08/19 09:19:01;;;;;;;6.93;2.47;;;;;;;34.62;20.59;100133.28;4965069;28;20063;-75
2022/08/19 09:21:28;;;;;;;9.38;2.60;;;;;;;34.63;20.60;100145.63;4973810;28;20065;-76
2022/08/19 09:24:01;;;;;;;24.23;11.32;;;;;;;35.02;20.07;100136.78;4938135;29;20070;-75
2022/08/19 09:26:33;;;;;;;10.50;2.95;;;;;;;37.28;18.26;100141.25;4954302;29;20051;-75
2022/08/19 09:29:14;;;;;;;5.68;2.63;;;;;;;39.21;15.98;100141.09;4952628;28;20581;-77
2022/08/19 09:31:43;;;;;;;5.47;2.60;;;;;;;39.67;15.97;100156.34;4954488;29;20066;-76
2022/08/19 09:34:10;;;;;;;9.05;2.53;;;;;;;39.93;15.63;100139.63;4954166;29;20051;-76
2022/08/19 09:36:53;;;;;;;14.82;2.92;;;;;;;40.76;15.14;100145.16;4954335;29;20051;-75
2022/08/19 09:39:20;;;;;;;8.02;2.65;;;;;;;41.28;14.57;100149.25;4963870;28;20063;-76
2022/08/19 09:41:49;;;;;;;7.40;2.90;;;;;;;39.69;16.07;100136.25;4973327;28;20150;-75
2022/08/19 09:44:17;;;;;;;11.35;2.80;;;;;;;37.70;17.74;100149.63;4973982;28;20065;-76
2022/08/19 09:46:46;;;;;;;8.88;2.67;;;;;;;35.09;20.08;100153.03;4973554;28;20050;-76
2022/08/19 09:49:16;;;;;;;11.40;5.45;;;;;;;33.64;21.66;100159.81;4973131;28;20495;-75
2022/08/19 09:51:45;;;;;;;13.25;3.22;;;;;;;32.76;22.94;100143.06;4973568;28;20062;-75
2022/08/19 09:54:17;;;;;;;12.95;3.10;;;;;;;31.95;24.10;100145.97;4973210;28;20059;-76
2022/08/19 09:56:49;;;;;;;6.65;2.70;;;;;;;31.47;24.53;100134.81;4972966;28;20134;-75
2022/08/19 09:59:16;;;;;;;6.68;2.90;;;;;;;31.00;24.87;100145.31;4972906;28;20114;-75
2022/08/19 10:01:43;;;;;;;7.28;2.92;;;;;;;30.54;25.51;100137.19;4973289;28;20400;-74
2022/08/19 10:04:11;;;;;;;6.45;2.67;;;;;;;30.27;25.33;100146.16;4956466;28;20079;-75
2022/08/19 10:06:47;;;;;;;15.68;3.20;;;;;;;29.88;25.38;100147.19;4976462;28;20059;-74
2022/08/19 10:09:19;;;;;;;9.93;3.15;;;;;;;29.72;25.11;100155.75;4976896;28;20059;-74
2022/08/19 10:12:00;;;;;;;6.53;2.35;;;;;;;29.49;24.33;100155.88;4976774;28;20062;-75
2022/08/19 10:14:29;;;;;;;;;;;;;;;29.40;23.60;100155.69;4976991;28;20569;-75
2022/08/19 10:16:56;;;;;;;11.50;2.13;;;;;;;29.27;22.46;100168.28;4977382;28;19926;-75
2022/08/19 10:19:25;;;;;;;12.55;2.45;;;;;;;28.99;22.49;100166.03;4976777;28;20154;-74
2022/08/19 10:21:53;;;;;;;9.13;3.10;;;;;;;29.02;22.92;100168.00;4976564;28;20054;-75
2022/08/19 10:24:27;;;;;;;12.70;2.80;;;;;;;28.77;22.81;100165.66;4976839;28;20478;-76
2022/08/19 10:26:55;;;;;;;11.30;2.58;;;;;;;28.56;23.37;100168.97;4976986;28;20057;-75
2022/08/19 10:29:27;;;;;;;13.63;2.42;;;;;;;28.48;23.66;100170.38;4976553;28;20074;-74
2022/08/19 10:32:05;;;;;;;14.23;2.92;;;;;;;28.31;23.57;100162.88;4976900;28;20083;-75
2022/08/19 10:34:39;;;;;;;18.05;2.28;;;;;;;28.25;22.91;100173.22;4959362;28;20059;-76
2022/08/19 10:37:17;;;;;;;23.33;3.00;;;;;;;28.17;23.29;100214.63;4975025;28;20061;-69
2022/08/19 10:39:54;;;;;;;19.50;3.47;;;;;;;28.02;23.22;100168.31;4961984;28;20055;-70
2022/08/19 10:42:21;;;;;;;8.88;2.63;;;;;;;28.05;22.92;100166.63;4957522;29;20063;-70
2022/08/19 10:44:48;;;;;;;10.02;2.60;;;;;;;27.99;22.33;100180.63;4957227;29;20145;-70
2022/08/19 10:47:18;;;;;;;;;;;;;;;27.90;22.54;100159.53;4957115;28;20054;-71
2022/08/19 10:52:43;;;;;;;9.70;2.25;;;;;;;28.13;21.88;100180.34;4957050;28;20085;-71
2022/08/19 10:58:13;;;;;;;13.48;2.63;;;;;;;27.82;21.40;100164.53;4944234;28;20063;-70
2022/08/19 11:00:42;;;;;;;8.50;2.70;;;;;;;27.96;21.52;100169.22;4959844;28;20059;-75
2022/08/19 11:03:09;;;;;;;;;;;;;;;28.03;21.83;100169.09;4961073;28;20075;-70
2022/08/19 11:05:38;;;;;;;9.77;2.10;;;;;;;28.13;21.41;100182.44;4958051;28;19937;-73
2022/08/19 11:08:11;;;;;;;9.15;2.30;;;;;;;28.05;21.14;100167.44;4973645;28;20062;-72
2022/08/19 11:10:49;;;;;;;16.08;2.40;;;;;;;27.88;21.05;100168.56;4956700;28;20197;-72
2022/08/19 11:13:16;;;;;;;7.00;2.63;;;;;;;27.93;21.16;100152.94;4947460;28;20515;-75
2022/08/19 11:15:43;;;;;;;6.57;2.35;;;;;;;28.00;21.30;100167.09;4952674;28;20074;-75
2022/08/19 11:18:10;;;;;;;6.88;2.60;;;;;;;27.91;21.40;100161.97;4927685;29;20059;-71
2022/08/19 11:20:39;;;;;;;8.10;2.40;;;;;;;28.02;21.40;100156.06;4952163;29;20054;-70
2022/08/19 11:23:06;;;;;;;7.25;2.75;;;;;;;28.00;21.29;100167.09;4938208;29;20070;-69
2022/08/19 11:25:34;;;;;;;9.02;1.98;;;;;;;27.85;21.57;100165.72;4948825;29;20091;-69
2022/08/19 11:28:01;;;;;;;5.38;2.20;;;;;;;27.83;22.01;100159.63;4942901;29;20062;-71
2022/08/19 11:30:27;;;;;;;15.80;2.92;;;;;;;27.89;22.14;100161.56;4945864;29;20506;-71
2022/08/19 11:32:54;;;;;;;5.35;2.33;;;;;;;27.92;22.13;100145.63;4937428;29;20058;-74
2022/08/19 11:35:23;;;;;;;9.75;2.55;;;;;;;27.96;21.83;100146.34;4948815;29;20115;-75
2022/08/19 11:37:50;;;;;;;;;;;;;;;27.73;22.29;100149.16;4938413;29;20055;-72
2022/08/19 11:40:17;;;;;;;8.02;2.60;;;;;;;27.55;22.56;100162.94;4947872;29;19949;-69
2022/08/19 11:42:57;;;;;;;6.72;2.65;;;;;;;27.47;22.69;100144.31;4942061;29;20063;-69
2022/08/19 11:45:24;;;;;;;;;;;;;;;27.35;22.88;100154.25;4939121;29;20063;-68
2022/08/19 11:47:53;;;;;;;11.20;2.93;;;;;;;27.32;23.17;100163.69;4945150;29;19953;-70
2022/08/19 11:50:20;;;;;;;11.38;2.55;;;;;;;27.40;22.95;100165.22;4940328;29;20296;-74
2022/08/19 11:52:49;;;;;;;8.45;2.15;;;;;;;27.51;22.87;100173.63;4942934;29;20067;-74
2022/08/19 11:55:16;;;;;;;6.78;2.38;;;;;;;27.56;22.98;100168.22;4942026;29;20505;-75
2022/08/19 11:57:43;;;;;;;10.63;2.75;;;;;;;27.51;23.13;100165.06;4941461;29;20423;-73